createdAt,value
2018-12-04T00:01:14.010Z,9.90
2018-12-04T00:03:43.271Z,9.90
2018-12-04T00:06:12.533Z,9.90
2018-12-04T00:08:41.796Z,9.90
2018-12-04T00:11:11.066Z,9.90
2018-12-04T00:13:40.359Z,9.90
2018-12-04T00:16:09.601Z,9.90
2018-12-04T00:18:38.867Z,9.80
2018-12-04T00:21:08.127Z,9.80
2018-12-04T00:23:37.381Z,9.80
2018-12-04T00:26:06.753Z,9.80
2018-12-04T00:28:36.031Z,9.70
2018-12-04T00:31:05.331Z,9.70
2018-12-04T00:33:34.585Z,9.70
2018-12-04T00:36:04.007Z,9.70
2018-12-04T00:38:33.282Z,9.70
2018-12-04T00:41:02.582Z,9.70
2018-12-04T00:43:31.846Z,9.60
2018-12-04T00:46:01.118Z,9.60
2018-12-04T00:48:30.369Z,9.70
2018-12-04T00:50:59.725Z,9.70
2018-12-04T00:53:29.030Z,9.70
2018-12-04T00:55:58.378Z,9.70
2018-12-04T00:58:27.673Z,9.70
2018-12-04T01:00:56.932Z,9.70
2018-12-04T01:03:26.170Z,9.60
2018-12-04T01:05:55.441Z,9.60
2018-12-04T01:08:24.683Z,9.60
2018-12-04T01:10:53.946Z,9.60
2018-12-04T01:13:23.204Z,9.70
2018-12-04T01:15:52.451Z,9.60
2018-12-04T01:18:21.734Z,9.60
2018-12-04T01:20:51.004Z,9.60
2018-12-04T01:23:20.355Z,9.60
2018-12-04T01:25:49.578Z,9.60
2018-12-04T01:28:18.837Z,9.60
2018-12-04T01:30:48.085Z,9.60
2018-12-04T01:33:17.374Z,9.60
2018-12-04T01:35:46.612Z,9.60
2018-12-04T01:38:15.845Z,9.70
2018-12-04T01:40:45.232Z,9.60
2018-12-04T01:43:14.508Z,9.50
2018-12-04T01:45:43.749Z,9.50
2018-12-04T01:48:13.004Z,9.60
2018-12-04T01:50:42.257Z,9.60
2018-12-04T01:53:11.513Z,9.60
2018-12-04T01:55:40.745Z,9.40
2018-12-04T01:58:09.989Z,9.40
2018-12-04T02:00:39.370Z,9.50
2018-12-04T02:03:08.620Z,9.50
2018-12-04T02:05:37.870Z,9.50
2018-12-04T02:08:07.128Z,9.60
2018-12-04T02:10:36.371Z,9.60
2018-12-04T02:13:05.634Z,9.50
2018-12-04T02:15:35.101Z,9.40
2018-12-04T02:18:04.417Z,9.40
2018-12-04T02:20:33.685Z,9.40
2018-12-04T02:23:02.945Z,9.40
2018-12-04T02:25:32.209Z,9.30
2018-12-04T02:28:01.459Z,9.30
2018-12-04T02:30:30.734Z,9.30
2018-12-04T02:32:59.997Z,9.30
2018-12-04T02:35:29.289Z,9.40
2018-12-04T02:37:58.566Z,9.40
2018-12-04T02:40:27.818Z,9.30
2018-12-04T02:42:57.074Z,9.30
2018-12-04T02:45:26.344Z,9.30
2018-12-04T02:47:55.570Z,9.30
2018-12-04T02:50:24.892Z,9.20
2018-12-04T02:52:54.141Z,9.20
2018-12-04T02:55:23.401Z,9.30
2018-12-04T02:57:52.651Z,9.30
2018-12-04T03:00:21.972Z,9.40
2018-12-04T03:02:51.225Z,9.50
2018-12-04T03:05:20.459Z,9.40
2018-12-04T03:07:49.713Z,9.30
2018-12-04T03:10:18.957Z,9.30
2018-12-04T03:12:48.263Z,9.30
2018-12-04T03:15:17.512Z,9.30
2018-12-04T03:17:46.847Z,9.40
2018-12-04T03:20:16.085Z,9.40
2018-12-04T03:22:45.336Z,9.40
2018-12-04T03:25:14.629Z,9.40
2018-12-04T03:27:43.914Z,9.50
2018-12-04T03:30:13.353Z,9.40
2018-12-04T03:32:42.608Z,9.40
2018-12-04T03:35:11.865Z,9.40
2018-12-04T03:37:41.118Z,9.30
2018-12-04T03:40:10.428Z,9.30
2018-12-04T03:42:39.674Z,9.50
2018-12-04T03:45:09.081Z,9.50
2018-12-04T03:47:38.342Z,9.50
2018-12-04T03:50:07.747Z,9.60
2018-12-04T03:52:37.003Z,9.50
2018-12-04T03:55:06.488Z,9.50
2018-12-04T03:57:35.738Z,9.40
2018-12-04T04:00:05.961Z,9.40
2018-12-04T04:02:35.212Z,9.30
2018-12-04T04:05:04.950Z,9.30
2018-12-04T04:07:34.239Z,9.30
2018-12-04T04:10:04.247Z,9.40
2018-12-04T04:12:33.473Z,9.40
2018-12-04T04:15:02.713Z,9.40
2018-12-04T04:17:31.978Z,9.30
2018-12-04T04:20:01.272Z,9.40
2018-12-04T04:22:30.543Z,9.40
2018-12-04T04:24:59.818Z,9.30
2018-12-04T04:27:29.088Z,9.40
2018-12-04T04:29:58.333Z,9.40
2018-12-04T04:32:27.593Z,9.30
2018-12-04T04:34:56.931Z,9.30
2018-12-04T04:37:26.191Z,9.30
2018-12-04T04:39:55.453Z,9.30
2018-12-04T04:42:24.713Z,9.30
2018-12-04T04:44:53.947Z,9.30
2018-12-04T04:47:23.267Z,9.30
2018-12-04T04:49:52.501Z,9.40
2018-12-04T04:52:21.767Z,9.60
2018-12-04T04:54:51.049Z,9.60
2018-12-04T04:57:20.553Z,9.60
2018-12-04T04:59:49.811Z,9.60
2018-12-04T05:02:19.117Z,9.50
2018-12-04T05:04:48.479Z,9.40
2018-12-04T05:07:17.756Z,9.30
2018-12-04T05:09:46.978Z,9.30
2018-12-04T05:12:16.242Z,9.30
2018-12-04T05:14:45.562Z,9.40
2018-12-04T05:17:14.869Z,9.30
2018-12-04T05:19:44.146Z,9.50
2018-12-04T05:22:13.444Z,9.50
2018-12-04T05:24:42.724Z,9.50
2018-12-04T05:27:12.045Z,9.50
2018-12-04T05:29:41.313Z,9.50
2018-12-04T05:32:10.583Z,9.40
2018-12-04T05:34:39.829Z,9.40
2018-12-04T05:37:09.102Z,9.50
2018-12-04T05:39:38.357Z,9.60
2018-12-04T05:42:07.649Z,9.60
2018-12-04T05:44:36.908Z,9.70
2018-12-04T05:47:20.273Z,9.60
2018-12-04T05:49:49.629Z,9.60
2018-12-04T05:52:18.866Z,9.50
2018-12-04T05:54:48.151Z,9.40
2018-12-04T05:57:17.477Z,9.30
2018-12-04T05:59:46.801Z,9.20
2018-12-04T06:02:16.038Z,9.00
2018-12-04T06:04:45.565Z,9.00
2018-12-04T06:07:14.807Z,9.00
2018-12-04T06:09:44.151Z,8.90
2018-12-04T06:12:13.398Z,8.80
2018-12-04T06:14:42.670Z,8.80
2018-12-04T06:17:11.921Z,8.70
2018-12-04T06:19:41.161Z,8.70
2018-12-04T06:22:10.481Z,8.70
2018-12-04T06:24:39.737Z,8.60
2018-12-04T06:27:09.109Z,8.60
2018-12-04T06:29:38.349Z,8.60
2018-12-04T06:32:07.609Z,8.60
2018-12-04T06:34:36.938Z,8.70
2018-12-04T06:37:06.214Z,8.70
2018-12-04T06:39:35.485Z,8.80
2018-12-04T06:42:04.810Z,8.70
2018-12-04T06:44:35.247Z,8.70
2018-12-04T06:47:04.682Z,8.50
2018-12-04T06:49:33.929Z,8.50
2018-12-04T06:52:03.195Z,8.50
2018-12-04T06:54:32.418Z,8.50
2018-12-04T06:57:01.664Z,8.50
2018-12-04T06:59:31.044Z,8.60
2018-12-04T07:02:00.307Z,8.50
2018-12-04T07:04:29.606Z,8.60
2018-12-04T07:06:58.840Z,8.60
2018-12-04T07:09:28.093Z,8.60
2018-12-04T07:12:02.341Z,8.60
2018-12-04T07:14:28.635Z,8.70
2018-12-04T07:16:57.895Z,8.70
2018-12-04T07:19:27.304Z,8.60
2018-12-04T07:21:56.505Z,8.70
2018-12-04T07:24:25.762Z,8.70
2018-12-04T07:26:55.003Z,8.60
2018-12-04T07:29:24.307Z,8.60
2018-12-04T07:31:53.517Z,8.60
2018-12-04T07:34:22.756Z,8.70
2018-12-04T07:36:51.972Z,8.80
2018-12-04T07:39:21.227Z,8.80
2018-12-04T07:41:50.449Z,8.80
2018-12-04T07:44:19.687Z,8.80
2018-12-04T07:46:48.901Z,8.80
2018-12-04T07:49:18.197Z,8.90
2018-12-04T07:51:47.492Z,8.90
2018-12-04T07:54:16.724Z,8.90
2018-12-04T07:56:45.985Z,8.90
2018-12-04T07:59:15.278Z,8.90
2018-12-04T08:01:44.497Z,8.90
2018-12-04T08:04:13.825Z,8.90
2018-12-04T08:06:43.129Z,8.90
2018-12-04T08:09:12.369Z,8.90
2018-12-04T08:11:41.609Z,8.90
2018-12-04T08:14:10.875Z,8.90
2018-12-04T08:16:40.122Z,8.90
2018-12-04T08:19:09.375Z,8.90
2018-12-04T08:21:38.593Z,8.90
2018-12-04T08:24:07.805Z,9.00
2018-12-04T08:26:37.721Z,9.00
2018-12-04T08:29:06.952Z,9.10
2018-12-04T08:31:36.204Z,9.00
2018-12-04T08:34:05.430Z,8.90
2018-12-04T08:36:34.747Z,8.90
2018-12-04T08:39:12.843Z,9.00
2018-12-04T08:41:38.726Z,9.10
2018-12-04T08:44:07.986Z,9.20
2018-12-04T08:46:37.205Z,9.30
2018-12-04T08:49:06.606Z,9.30
2018-12-04T08:51:35.869Z,9.20
2018-12-04T08:54:05.137Z,9.30
2018-12-04T08:56:34.393Z,9.40
2018-12-04T08:59:03.670Z,9.40
2018-12-04T09:01:32.906Z,9.40
2018-12-04T09:04:02.138Z,9.50
2018-12-04T09:06:36.435Z,9.40
2018-12-04T09:09:09.901Z,9.30
2018-12-04T09:11:39.130Z,9.30
2018-12-04T09:14:08.358Z,9.40
2018-12-04T09:16:37.601Z,9.40
2018-12-04T09:19:06.838Z,9.40
2018-12-04T09:21:36.171Z,9.40
2018-12-04T09:24:05.571Z,9.40
2018-12-04T09:26:35.077Z,9.40
2018-12-04T09:29:04.578Z,9.50
2018-12-04T09:31:34.191Z,9.50
2018-12-04T09:34:03.490Z,9.50
2018-12-04T09:36:32.814Z,9.30
2018-12-04T09:39:02.097Z,9.30
2018-12-04T09:41:31.323Z,9.30
2018-12-04T09:44:00.580Z,9.50
2018-12-04T09:46:29.885Z,9.60
2018-12-04T09:48:59.159Z,9.50
2018-12-04T09:51:28.501Z,9.60
2018-12-04T09:53:57.735Z,9.60
2018-12-04T09:56:26.969Z,9.70
2018-12-04T09:58:56.299Z,9.80
2018-12-04T10:01:25.543Z,9.90
2018-12-04T10:03:54.782Z,9.90
2018-12-04T10:06:24.137Z,10.10
2018-12-04T10:08:53.390Z,10.20
2018-12-04T10:11:22.665Z,10.30
2018-12-04T10:13:51.907Z,10.50
2018-12-04T10:16:21.158Z,10.50
2018-12-04T10:18:50.401Z,10.20
2018-12-04T10:21:19.675Z,10.30
2018-12-04T10:23:48.928Z,10.30
2018-12-04T10:26:18.169Z,10.30
2018-12-04T10:28:47.425Z,10.10
2018-12-04T10:31:16.662Z,10.00
2018-12-04T10:33:45.922Z,9.90
2018-12-04T10:36:15.159Z,9.90
2018-12-04T10:38:44.412Z,9.90
2018-12-04T10:41:13.912Z,10.00
2018-12-04T10:43:43.180Z,10.10
2018-12-04T10:46:12.422Z,10.10
2018-12-04T10:48:41.738Z,10.20
2018-12-04T10:51:10.982Z,10.00
2018-12-04T10:53:40.234Z,10.00
2018-12-04T10:56:09.590Z,10.10
2018-12-04T10:58:38.858Z,10.00
2018-12-04T11:01:13.318Z,10.00
2018-12-04T11:03:42.555Z,9.90
2018-12-04T11:06:11.906Z,9.70
2018-12-04T11:08:41.142Z,9.60
2018-12-04T11:11:10.381Z,9.60
2018-12-04T11:13:39.802Z,9.60
2018-12-04T11:16:09.045Z,9.60
2018-12-04T11:18:38.297Z,9.70
2018-12-04T11:21:07.557Z,9.70
2018-12-04T11:23:36.794Z,9.70
2018-12-04T11:26:06.050Z,9.70
2018-12-04T11:28:35.379Z,9.60
2018-12-04T11:31:04.767Z,9.60
2018-12-04T11:33:34.095Z,9.60
2018-12-04T11:36:03.362Z,9.60
2018-12-04T11:38:32.599Z,9.70
2018-12-04T11:41:01.951Z,9.70
2018-12-04T11:43:31.301Z,9.60
2018-12-04T11:46:00.591Z,9.70
2018-12-04T11:48:29.878Z,9.80
2018-12-04T11:51:00.354Z,9.80
2018-12-04T11:53:29.849Z,9.80
2018-12-04T11:55:59.120Z,9.90
2018-12-04T11:58:28.529Z,10.00
2018-12-04T12:00:57.945Z,10.00
2018-12-04T12:03:27.228Z,9.90
2018-12-04T12:05:56.482Z,9.90
2018-12-04T12:08:25.726Z,9.80
2018-12-04T12:10:54.994Z,9.80
2018-12-04T12:13:24.246Z,9.70
2018-12-04T12:15:53.549Z,9.70
2018-12-04T12:18:22.790Z,9.70
2018-12-04T12:20:52.137Z,9.70
2018-12-04T12:23:21.406Z,9.60
2018-12-04T12:25:50.669Z,9.60
2018-12-04T12:28:19.968Z,9.60
2018-12-04T12:30:49.207Z,9.60
2018-12-04T12:33:18.465Z,9.50
2018-12-04T12:35:47.722Z,9.60
2018-12-04T12:38:16.979Z,9.70
2018-12-04T12:40:46.201Z,9.80
2018-12-04T12:43:15.430Z,9.80
2018-12-04T12:45:44.681Z,9.70
2018-12-04T12:48:14.069Z,9.60
2018-12-04T12:50:43.352Z,9.60
2018-12-04T12:53:12.678Z,9.70
2018-12-04T12:55:41.958Z,9.70
2018-12-04T12:58:11.352Z,9.60
2018-12-04T13:00:40.642Z,9.60
2018-12-04T13:03:09.898Z,9.60
2018-12-04T13:05:39.236Z,9.70
2018-12-04T13:08:08.616Z,9.70
2018-12-04T13:10:37.862Z,9.70
2018-12-04T13:13:07.136Z,9.70
2018-12-04T13:15:36.369Z,9.70
2018-12-04T13:18:05.664Z,9.50
2018-12-04T13:20:35.061Z,9.60
2018-12-04T13:23:04.418Z,9.50
2018-12-04T13:25:33.796Z,9.50
2018-12-04T13:28:03.094Z,9.50
2018-12-04T13:30:32.428Z,9.60
2018-12-04T13:33:01.720Z,9.60
2018-12-04T13:35:31.038Z,9.60
2018-12-04T13:38:00.387Z,9.60
2018-12-04T13:40:29.730Z,9.60
2018-12-04T13:42:59.122Z,9.60
2018-12-04T13:45:28.461Z,9.60
2018-12-04T13:48:00.802Z,9.50
2018-12-04T13:50:29.068Z,9.50
2018-12-04T13:52:58.330Z,9.50
2018-12-04T13:55:27.600Z,9.40
2018-12-04T13:57:56.857Z,9.50
2018-12-04T14:00:26.197Z,9.60
2018-12-04T14:02:55.522Z,9.40
2018-12-04T14:05:24.785Z,9.30
2018-12-04T14:07:54.164Z,9.20
2018-12-04T14:10:23.421Z,9.20
2018-12-04T14:12:52.783Z,9.20
2018-12-04T14:15:22.115Z,8.90
2018-12-04T14:17:51.445Z,8.80
2018-12-04T14:20:20.795Z,8.80
2018-12-04T14:22:50.105Z,8.90
2018-12-04T14:25:19.424Z,8.90
2018-12-04T14:27:49.120Z,8.90
2018-12-04T14:30:18.782Z,8.90
2018-12-04T14:32:48.064Z,8.90
2018-12-04T14:35:17.382Z,9.00
2018-12-04T14:37:46.702Z,8.80
2018-12-04T14:40:15.989Z,8.80
2018-12-04T14:42:45.316Z,8.70
2018-12-04T14:45:14.652Z,8.60
2018-12-04T14:47:44.079Z,8.50
2018-12-04T14:50:13.367Z,8.50
2018-12-04T14:52:42.665Z,8.30
2018-12-04T14:55:12.005Z,8.20
2018-12-04T14:57:41.438Z,8.10
2018-12-04T15:00:11.700Z,8.10
2018-12-04T15:02:41.058Z,8.20
2018-12-04T15:05:10.446Z,8.30
2018-12-04T15:07:39.725Z,8.30
2018-12-04T15:10:10.616Z,8.20
2018-12-04T15:12:39.964Z,8.30
2018-12-04T15:15:09.425Z,8.30
2018-12-04T15:17:38.818Z,8.20
2018-12-04T15:20:08.550Z,8.00
2018-12-04T15:22:37.836Z,8.10
2018-12-04T15:25:07.416Z,8.10
2018-12-04T15:27:36.738Z,8.10
2018-12-04T15:30:06.380Z,8.10
2018-12-04T15:32:35.679Z,8.10
2018-12-04T15:35:05.698Z,8.10
2018-12-04T15:37:35.049Z,8.20
2018-12-04T15:40:04.950Z,8.00
2018-12-04T15:42:34.271Z,8.00
2018-12-04T15:45:04.603Z,7.90
2018-12-04T15:47:34.048Z,7.90
2018-12-04T15:50:03.515Z,7.90
2018-12-04T15:52:32.850Z,7.90
2018-12-04T15:55:02.167Z,7.80
2018-12-04T15:57:31.645Z,7.90
2018-12-04T16:00:00.914Z,7.90
2018-12-04T16:02:30.190Z,7.90
2018-12-04T16:04:59.466Z,8.00
2018-12-04T16:07:28.819Z,8.10
2018-12-04T16:09:58.081Z,8.00
2018-12-04T16:12:27.310Z,8.10
2018-12-04T16:14:56.553Z,8.20
2018-12-04T16:17:25.902Z,8.20
2018-12-04T16:19:55.170Z,8.10
2018-12-04T16:22:24.452Z,8.10
2018-12-04T16:24:53.696Z,8.00
2018-12-04T16:27:22.978Z,8.00
2018-12-04T16:29:52.225Z,8.10
2018-12-04T16:32:21.517Z,8.10
2018-12-04T16:34:50.782Z,8.00
2018-12-04T16:37:20.025Z,8.00
2018-12-04T16:39:49.434Z,8.10
2018-12-04T16:42:18.718Z,8.00
2018-12-04T16:44:47.961Z,8.10
2018-12-04T16:47:17.263Z,8.10
2018-12-04T16:49:46.612Z,8.10
2018-12-04T16:52:15.875Z,8.10
2018-12-04T16:54:45.117Z,8.10
2018-12-04T16:57:14.353Z,8.10
2018-12-04T16:59:43.674Z,7.90
2018-12-04T17:02:12.970Z,7.90
2018-12-04T17:04:42.215Z,7.90
2018-12-04T17:07:11.462Z,7.90
2018-12-04T17:09:40.731Z,7.80
2018-12-04T17:12:10.067Z,7.70
2018-12-04T17:14:39.431Z,7.60
2018-12-04T17:17:08.969Z,7.60
2018-12-04T17:19:38.255Z,7.80
2018-12-04T17:22:07.713Z,7.90
2018-12-04T17:24:37.045Z,7.90
2018-12-04T17:27:06.350Z,7.70
2018-12-04T17:29:35.638Z,7.80
2018-12-04T17:32:04.958Z,7.70
2018-12-04T17:34:34.273Z,7.70
2018-12-04T17:37:03.602Z,7.60
2018-12-04T17:39:33.595Z,7.50
2018-12-04T17:42:02.875Z,7.50
2018-12-04T17:44:32.215Z,7.50
2018-12-04T17:47:01.576Z,7.50
2018-12-04T17:49:30.825Z,7.50
2018-12-04T17:52:00.841Z,7.40
2018-12-04T17:54:30.091Z,7.50
2018-12-04T17:56:59.462Z,7.50
2018-12-04T17:59:28.901Z,7.50
2018-12-04T18:01:58.172Z,7.50
2018-12-04T18:04:27.417Z,7.50
2018-12-04T18:06:56.658Z,7.50
2018-12-04T18:09:25.910Z,7.40
2018-12-04T18:11:55.143Z,7.30
2018-12-04T18:14:24.456Z,7.50
2018-12-04T18:16:53.757Z,7.60
2018-12-04T18:19:23.064Z,7.70
2018-12-04T18:21:52.317Z,7.60
2018-12-04T18:24:21.625Z,7.60
2018-12-04T18:26:50.988Z,7.60
2018-12-04T18:29:20.246Z,7.60
2018-12-04T18:31:49.599Z,7.50
2018-12-04T18:34:18.935Z,7.50
2018-12-04T18:36:48.286Z,7.50
2018-12-04T18:39:17.569Z,7.40
2018-12-04T18:41:46.955Z,7.50
2018-12-04T18:44:16.239Z,7.60
2018-12-04T18:46:45.484Z,7.70
2018-12-04T18:49:14.810Z,7.60
2018-12-04T18:51:44.521Z,7.50
2018-12-04T18:54:14.129Z,7.50
2018-12-04T18:56:43.418Z,7.50
2018-12-04T18:59:12.721Z,7.40
2018-12-04T19:01:41.964Z,7.30
2018-12-04T19:04:11.243Z,7.20
2018-12-04T19:06:40.725Z,7.20
2018-12-04T19:09:10.153Z,7.30
2018-12-04T19:11:39.479Z,7.40
2018-12-04T19:14:09.208Z,7.50
2018-12-04T19:16:38.692Z,7.50
2018-12-04T19:19:08.068Z,7.50
2018-12-04T19:21:37.360Z,7.40
2018-12-04T19:24:06.759Z,7.40
2018-12-04T19:26:36.038Z,7.20
2018-12-04T19:29:05.390Z,7.10
2018-12-04T19:31:34.711Z,7.10
2018-12-04T19:34:04.262Z,7.10
2018-12-04T19:36:33.583Z,7.30
2018-12-04T19:39:03.219Z,7.30
2018-12-04T19:42:30.515Z,7.20
2018-12-04T19:44:59.838Z,7.20
2018-12-04T19:47:29.160Z,7.10
2018-12-04T19:49:58.551Z,7.10
2018-12-04T19:52:27.855Z,7.00
2018-12-04T19:54:57.219Z,6.90
2018-12-04T19:57:26.556Z,6.90
2018-12-04T19:59:55.961Z,7.10
2018-12-04T20:02:25.262Z,7.10
2018-12-04T20:04:54.539Z,7.00
2018-12-04T20:07:23.891Z,7.10
2018-12-04T20:09:53.220Z,7.00
2018-12-04T20:12:22.590Z,7.00
2018-12-04T20:14:52.024Z,7.00
2018-12-04T20:17:21.376Z,7.10
2018-12-04T20:19:50.734Z,7.10
2018-12-04T20:22:20.026Z,7.10
2018-12-04T20:24:49.322Z,7.00
2018-12-04T20:27:18.606Z,6.80
2018-12-04T20:29:47.963Z,6.80
2018-12-04T20:32:17.264Z,6.60
2018-12-04T20:34:46.625Z,6.60
2018-12-04T20:37:15.929Z,6.70
2018-12-04T20:39:45.233Z,6.50
2018-12-04T20:42:14.555Z,6.50
2018-12-04T20:44:43.886Z,6.50
2018-12-04T20:47:13.229Z,6.60
2018-12-04T20:49:42.526Z,6.60
2018-12-04T20:52:11.907Z,6.60
2018-12-04T20:54:41.295Z,6.50
2018-12-04T20:57:10.680Z,6.50
2018-12-04T20:59:39.986Z,6.50
2018-12-04T21:02:09.369Z,6.70
2018-12-04T21:04:38.750Z,6.60
2018-12-04T21:07:08.201Z,6.60
2018-12-04T21:09:37.521Z,6.60
2018-12-04T21:12:06.869Z,6.60
2018-12-04T21:14:36.167Z,6.60
2018-12-04T21:17:05.472Z,6.60
2018-12-04T21:19:34.759Z,6.60
2018-12-04T21:22:04.136Z,6.60
2018-12-04T21:24:33.421Z,6.50
2018-12-04T21:27:02.781Z,6.50
2018-12-04T21:29:37.215Z,6.50
2018-12-04T21:32:12.010Z,6.50
2018-12-04T21:34:48.457Z,6.50
2018-12-04T21:37:23.068Z,6.70
2018-12-04T21:39:57.559Z,6.80
2018-12-04T21:42:32.227Z,6.70
2018-12-04T21:45:06.814Z,6.60
2018-12-04T21:47:41.414Z,6.70
2018-12-04T21:50:10.690Z,6.70
2018-12-04T21:52:40.030Z,6.80
2018-12-04T21:55:09.350Z,6.80
2018-12-04T21:57:38.637Z,6.70
2018-12-04T22:00:08.142Z,6.70
2018-12-04T22:02:37.444Z,6.60
2018-12-04T22:05:07.068Z,6.60
2018-12-04T22:07:36.302Z,6.80
2018-12-04T22:10:06.093Z,6.90
2018-12-04T22:12:35.454Z,6.80
2018-12-04T22:15:05.338Z,6.70
2018-12-04T22:17:34.603Z,6.70
2018-12-04T22:20:05.894Z,6.70
2018-12-04T22:22:35.232Z,6.70
2018-12-04T22:25:04.685Z,6.80
2018-12-04T22:27:33.978Z,6.90
2018-12-04T22:30:03.409Z,6.70
2018-12-04T22:32:32.665Z,6.70
2018-12-04T22:35:02.106Z,6.80
2018-12-04T22:37:31.409Z,6.70
2018-12-04T22:40:00.711Z,6.70
2018-12-04T22:42:29.992Z,6.60
2018-12-04T22:45:04.539Z,6.60
2018-12-04T22:47:33.813Z,6.70
2018-12-04T22:50:03.217Z,6.70
2018-12-04T22:52:33.361Z,6.70
2018-12-04T22:55:02.637Z,6.60
2018-12-04T22:57:31.956Z,6.50
2018-12-04T23:00:01.198Z,6.70
2018-12-04T23:02:30.497Z,6.80
2018-12-04T23:04:59.743Z,6.90
2018-12-04T23:07:29.061Z,6.90
2018-12-04T23:09:58.317Z,6.80
2018-12-04T23:12:27.597Z,6.60
2018-12-04T23:14:56.857Z,6.60
2018-12-04T23:17:26.136Z,6.70
2018-12-04T23:19:55.438Z,6.60
2018-12-04T23:22:24.758Z,6.50
2018-12-04T23:24:54.027Z,6.60
2018-12-04T23:27:23.286Z,6.60
2018-12-04T23:29:52.682Z,6.60
2018-12-04T23:32:21.954Z,6.60
2018-12-04T23:34:51.217Z,6.80
2018-12-04T23:37:20.489Z,6.70
2018-12-04T23:39:49.768Z,6.80
2018-12-04T23:42:19.177Z,6.80
2018-12-04T23:44:48.487Z,6.90
2018-12-04T23:47:17.778Z,6.80
2018-12-04T23:49:47.187Z,6.70
2018-12-04T23:52:16.586Z,6.80
2018-12-04T23:54:45.882Z,6.90
2018-12-04T23:57:15.135Z,6.80
2018-12-04T23:59:44.405Z,6.80
